sensor_id;sensor_type;location;lat;lon;timestamp;pressure;altitude;pressure_sealevel;temperature;humidity
54248;BME280;40161;39.768;2.722;2023-10-31T00:00:15;100858.44;;;17.36;69.83
54248;BME280;40161;39.768;2.722;2023-10-31T00:02:41;100868.13;;;17.17;72.22
54248;BME280;40161;39.768;2.722;2023-10-31T00:05:07;100876.34;;;17.31;72.46
54248;BME280;40161;39.768;2.722;2023-10-31T00:07:32;100879.00;;;17.42;71.86
54248;BME280;40161;39.768;2.722;2023-10-31T00:09:58;100871.81;;;17.52;71.10
54248;BME280;40161;39.768;2.722;2023-10-31T00:12:24;100878.50;;;17.54;71.10
54248;BME280;40161;39.768;2.722;2023-10-31T00:14:49;100877.34;;;17.52;69.67
54248;BME280;40161;39.768;2.722;2023-10-31T00:17:15;100878.09;;;17.56;68.44
54248;BME280;40161;39.768;2.722;2023-10-31T00:19:40;100883.63;;;17.60;68.10
54248;BME280;40161;39.768;2.722;2023-10-31T00:22:06;100852.19;;;17.28;70.32
54248;BME280;40161;39.768;2.722;2023-10-31T00:24:32;100867.59;;;17.33;70.12
54248;BME280;40161;39.768;2.722;2023-10-31T00:26:58;100879.78;;;17.43;69.72
54248;BME280;40161;39.768;2.722;2023-10-31T00:29:23;100877.78;;;17.47;70.63
54248;BME280;40161;39.768;2.722;2023-10-31T00:31:49;100878.13;;;17.52;70.48
54248;BME280;40161;39.768;2.722;2023-10-31T00:34:15;100884.41;;;17.60;69.87
54248;BME280;40161;39.768;2.722;2023-10-31T00:36:40;100869.09;;;17.45;68.37
54248;BME280;40161;39.768;2.722;2023-10-31T00:39:06;100878.84;;;17.60;69.57
54248;BME280;40161;39.768;2.722;2023-10-31T00:41:32;100861.91;;;17.47;70.27
54248;BME280;40161;39.768;2.722;2023-10-31T00:43:58;100889.53;;;17.65;69.91
54248;BME280;40161;39.768;2.722;2023-10-31T00:46:24;100860.31;;;17.50;70.26
54248;BME280;40161;39.768;2.722;2023-10-31T00:48:50;100885.97;;;17.61;70.97
54248;BME280;40161;39.768;2.722;2023-10-31T00:51:15;100894.00;;;17.52;71.19
54248;BME280;40161;39.768;2.722;2023-10-31T00:53:41;100899.59;;;17.45;70.58
54248;BME280;40161;39.768;2.722;2023-10-31T00:56:07;100878.28;;;17.35;72.34
54248;BME280;40161;39.768;2.722;2023-10-31T00:58:32;100888.81;;;17.54;72.66
54248;BME280;40161;39.768;2.722;2023-10-31T01:00:58;100902.66;;;17.58;72.32
54248;BME280;40161;39.768;2.722;2023-10-31T01:03:24;100895.25;;;17.40;73.43
54248;BME280;40161;39.768;2.722;2023-10-31T01:05:49;100879.13;;;17.28;73.91
54248;BME280;40161;39.768;2.722;2023-10-31T01:08:15;100904.31;;;17.48;73.85
54248;BME280;40161;39.768;2.722;2023-10-31T01:10:41;100911.75;;;17.58;74.09
54248;BME280;40161;39.768;2.722;2023-10-31T01:13:06;100913.00;;;17.53;73.31
54248;BME280;40161;39.768;2.722;2023-10-31T01:15:32;100904.88;;;17.28;75.85
54248;BME280;40161;39.768;2.722;2023-10-31T01:17:58;100913.19;;;17.32;75.01
54248;BME280;40161;39.768;2.722;2023-10-31T01:20:23;100918.31;;;17.33;74.50
54248;BME280;40161;39.768;2.722;2023-10-31T01:22:49;100931.78;;;17.35;74.28
54248;BME280;40161;39.768;2.722;2023-10-31T01:25:15;100929.88;;;17.25;75.51
54248;BME280;40161;39.768;2.722;2023-10-31T01:27:40;100930.69;;;17.18;74.39
54248;BME280;40161;39.768;2.722;2023-10-31T01:30:08;100931.06;;;17.20;75.78
54248;BME280;40161;39.768;2.722;2023-10-31T01:32:33;100935.50;;;17.14;75.83
54248;BME280;40161;39.768;2.722;2023-10-31T01:34:59;100935.47;;;17.18;75.66
54248;BME280;40161;39.768;2.722;2023-10-31T01:37:25;100944.13;;;17.23;75.26
54248;BME280;40161;39.768;2.722;2023-10-31T01:39:50;100931.56;;;17.08;76.51
54248;BME280;40161;39.768;2.722;2023-10-31T01:42:16;100931.56;;;17.04;76.37
54248;BME280;40161;39.768;2.722;2023-10-31T01:44:42;100922.59;;;16.79;77.02
54248;BME280;40161;39.768;2.722;2023-10-31T01:47:08;100942.72;;;16.97;75.54
54248;BME280;40161;39.768;2.722;2023-10-31T01:49:35;100938.75;;;16.95;75.12
54248;BME280;40161;39.768;2.722;2023-10-31T01:52:02;100947.81;;;17.02;75.27
54248;BME280;40161;39.768;2.722;2023-10-31T01:54:29;100940.81;;;16.80;77.56
54248;BME280;40161;39.768;2.722;2023-10-31T01:56:55;100941.19;;;16.82;76.74
54248;BME280;40161;39.768;2.722;2023-10-31T01:59:27;100942.81;;;16.79;75.44
54248;BME280;40161;39.768;2.722;2023-10-31T02:01:53;100942.03;;;16.65;77.67
54248;BME280;40161;39.768;2.722;2023-10-31T02:04:19;100931.78;;;16.54;77.34
54248;BME280;40161;39.768;2.722;2023-10-31T02:06:45;100938.09;;;16.58;77.88
54248;BME280;40161;39.768;2.722;2023-10-31T02:09:11;100934.91;;;16.74;77.07
54248;BME280;40161;39.768;2.722;2023-10-31T02:11:37;100950.72;;;16.77;76.58
54248;BME280;40161;39.768;2.722;2023-10-31T02:14:03;100937.28;;;16.65;76.51
54248;BME280;40161;39.768;2.722;2023-10-31T02:16:29;100942.47;;;16.59;78.23
54248;BME280;40161;39.768;2.722;2023-10-31T02:18:54;100943.34;;;16.38;78.42
54248;BME280;40161;39.768;2.722;2023-10-31T02:21:20;100952.47;;;16.21;80.54
54248;BME280;40161;39.768;2.722;2023-10-31T02:24:12;100954.84;;;16.16;80.79
54248;BME280;40161;39.768;2.722;2023-10-31T02:26:38;100901.91;;;15.96;79.69
54248;BME280;40161;39.768;2.722;2023-10-31T02:29:04;100956.84;;;16.04;81.56
54248;BME280;40161;39.768;2.722;2023-10-31T02:31:30;100938.28;;;16.01;81.96
54248;BME280;40161;39.768;2.722;2023-10-31T02:33:55;100958.41;;;16.16;81.71
54248;BME280;40161;39.768;2.722;2023-10-31T02:36:22;100942.22;;;16.07;79.99
54248;BME280;40161;39.768;2.722;2023-10-31T02:38:48;100969.47;;;16.27;79.69
54248;BME280;40161;39.768;2.722;2023-10-31T02:41:14;100968.31;;;16.03;82.30
54248;BME280;40161;39.768;2.722;2023-10-31T02:43:41;100956.88;;;15.83;81.58
54248;BME280;40161;39.768;2.722;2023-10-31T02:46:07;100948.56;;;15.97;81.93
54248;BME280;40161;39.768;2.722;2023-10-31T02:48:33;100942.22;;;15.93;81.73
54248;BME280;40161;39.768;2.722;2023-10-31T02:51:05;100942.22;;;15.89;81.08
54248;BME280;40161;39.768;2.722;2023-10-31T02:53:30;100952.53;;;15.75;81.76
54248;BME280;40161;39.768;2.722;2023-10-31T02:55:56;100975.41;;;15.54;83.53
54248;BME280;40161;39.768;2.722;2023-10-31T02:58:22;100968.34;;;15.74;83.20
54248;BME280;40161;39.768;2.722;2023-10-31T03:00:47;100971.88;;;15.85;81.98
54248;BME280;40161;39.768;2.722;2023-10-31T03:03:13;100962.00;;;15.99;79.92
54248;BME280;40161;39.768;2.722;2023-10-31T03:05:38;100972.28;;;15.91;80.68
54248;BME280;40161;39.768;2.722;2023-10-31T03:08:04;100978.59;;;15.95;81.04
54248;BME280;40161;39.768;2.722;2023-10-31T03:10:30;100983.75;;;15.72;81.91
54248;BME280;40161;39.768;2.722;2023-10-31T03:12:55;100988.88;;;15.59;83.92
54248;BME280;40161;39.768;2.722;2023-10-31T03:15:21;100984.53;;;15.69;83.60
54248;BME280;40161;39.768;2.722;2023-10-31T03:17:47;100983.38;;;15.73;83.08
54248;BME280;40161;39.768;2.722;2023-10-31T03:20:12;100981.75;;;15.72;82.24
54248;BME280;40161;39.768;2.722;2023-10-31T03:22:38;100961.56;;;15.64;83.20
54248;BME280;40161;39.768;2.722;2023-10-31T03:25:04;100982.16;;;15.78;82.40
54248;BME280;40161;39.768;2.722;2023-10-31T03:27:30;100976.22;;;15.76;81.08
54248;BME280;40161;39.768;2.722;2023-10-31T03:29:55;100980.97;;;15.75;82.01
54248;BME280;40161;39.768;2.722;2023-10-31T03:32:21;100980.97;;;15.72;80.72
54248;BME280;40161;39.768;2.722;2023-10-31T03:34:47;100998.72;;;15.63;82.71
54248;BME280;40161;39.768;2.722;2023-10-31T03:37:12;101001.94;;;15.69;81.58
54248;BME280;40161;39.768;2.722;2023-10-31T03:39:38;101003.53;;;15.74;80.72
54248;BME280;40161;39.768;2.722;2023-10-31T03:42:04;100997.13;;;15.41;81.99
54248;BME280;40161;39.768;2.722;2023-10-31T03:44:30;100995.16;;;15.45;82.00
54248;BME280;40161;39.768;2.722;2023-10-31T03:46:56;101014.53;;;15.63;80.89
54248;BME280;40161;39.768;2.722;2023-10-31T03:49:22;101018.09;;;15.63;79.80
54248;BME280;40161;39.768;2.722;2023-10-31T03:51:47;101001.88;;;15.58;79.29
54248;BME280;40161;39.768;2.722;2023-10-31T03:54:14;101009.38;;;15.54;80.09
54248;BME280;40161;39.768;2.722;2023-10-31T03:56:40;101003.38;;;15.13;81.46
54248;BME280;40161;39.768;2.722;2023-10-31T03:59:06;100993.75;;;14.71;83.90
54248;BME280;40161;39.768;2.722;2023-10-31T04:01:32;101026.25;;;15.06;84.92
54248;BME280;40161;39.768;2.722;2023-10-31T04:03:57;101013.22;;;15.14;83.55
54248;BME280;40161;39.768;2.722;2023-10-31T04:06:23;101017.63;;;15.22;81.93
54248;BME280;40161;39.768;2.722;2023-10-31T04:08:49;101027.94;;;15.36;81.75
54248;BME280;40161;39.768;2.722;2023-10-31T04:11:14;101007.72;;;15.14;81.18
54248;BME280;40161;39.768;2.722;2023-10-31T04:13:40;101023.91;;;15.08;82.78
54248;BME280;40161;39.768;2.722;2023-10-31T04:16:06;101029.34;;;14.87;83.61
54248;BME280;40161;39.768;2.722;2023-10-31T04:18:31;101048.00;;;15.15;83.30
54248;BME280;40161;39.768;2.722;2023-10-31T04:20:57;101052.78;;;15.29;81.56
54248;BME280;40161;39.768;2.722;2023-10-31T04:23:23;101054.97;;;14.84;85.46
54248;BME280;40161;39.768;2.722;2023-10-31T04:25:49;101029.56;;;14.53;85.91
54248;BME280;40161;39.768;2.722;2023-10-31T04:28:16;101050.25;;;14.84;86.05
54248;BME280;40161;39.768;2.722;2023-10-31T04:30:41;101060.09;;;14.85;85.94
54248;BME280;40161;39.768;2.722;2023-10-31T04:33:07;101056.50;;;14.74;86.46
54248;BME280;40161;39.768;2.722;2023-10-31T04:35:32;101060.94;;;14.93;86.60
54248;BME280;40161;39.768;2.722;2023-10-31T04:37:58;101061.44;;;15.16;85.10
54248;BME280;40161;39.768;2.722;2023-10-31T04:40:24;101057.91;;;15.27;83.79
54248;BME280;40161;39.768;2.722;2023-10-31T04:42:50;101052.25;;;14.94;86.12
54248;BME280;40161;39.768;2.722;2023-10-31T04:45:15;101073.19;;;14.99;86.88
54248;BME280;40161;39.768;2.722;2023-10-31T04:47:41;101056.25;;;15.04;86.37
54248;BME280;40161;39.768;2.722;2023-10-31T04:50:08;101061.84;;;15.22;85.46
54248;BME280;40161;39.768;2.722;2023-10-31T04:52:33;101072.94;;;15.33;85.49
54248;BME280;40161;39.768;2.722;2023-10-31T04:54:59;101067.09;;;15.49;85.11
54248;BME280;40161;39.768;2.722;2023-10-31T04:57:25;101062.72;;;15.51;84.67
54248;BME280;40161;39.768;2.722;2023-10-31T04:59:50;101062.72;;;15.51;85.09
54248;BME280;40161;39.768;2.722;2023-10-31T05:02:17;101072.63;;;15.49;85.29
54248;BME280;40161;39.768;2.722;2023-10-31T05:04:43;101072.53;;;15.34;87.95
54248;BME280;40161;39.768;2.722;2023-10-31T05:07:08;101091.84;;;15.20;87.65
54248;BME280;40161;39.768;2.722;2023-10-31T05:09:35;101082.38;;;15.17;88.18
54248;BME280;40161;39.768;2.722;2023-10-31T05:12:01;101095.41;;;15.24;87.71
54248;BME280;40161;39.768;2.722;2023-10-31T05:14:27;101083.63;;;15.38;86.76
54248;BME280;40161;39.768;2.722;2023-10-31T05:16:52;101095.50;;;15.38;84.82
54248;BME280;40161;39.768;2.722;2023-10-31T05:19:18;101106.56;;;15.42;84.71
54248;BME280;40161;39.768;2.722;2023-10-31T05:21:43;101113.72;;;15.54;84.74
54248;BME280;40161;39.768;2.722;2023-10-31T05:24:09;101113.38;;;15.66;83.66
54248;BME280;40161;39.768;2.722;2023-10-31T05:26:35;101115.31;;;15.65;83.45
54248;BME280;40161;39.768;2.722;2023-10-31T05:29:00;101120.09;;;15.72;83.72
54248;BME280;40161;39.768;2.722;2023-10-31T05:31:26;101125.66;;;15.76;83.11
54248;BME280;40161;39.768;2.722;2023-10-31T05:33:52;101123.28;;;15.78;83.27
54248;BME280;40161;39.768;2.722;2023-10-31T05:36:27;101087.66;;;15.65;82.37
54248;BME280;40161;39.768;2.722;2023-10-31T05:38:53;101099.09;;;15.60;83.99
54248;BME280;40161;39.768;2.722;2023-10-31T05:41:19;101122.50;;;15.81;84.20
54248;BME280;40161;39.768;2.722;2023-10-31T05:43:45;101115.38;;;15.73;82.25
54248;BME280;40161;39.768;2.722;2023-10-31T05:46:10;101123.59;;;15.65;84.52
54248;BME280;40161;39.768;2.722;2023-10-31T05:48:39;101111.38;;;15.63;83.46
54248;BME280;40161;39.768;2.722;2023-10-31T05:51:13;101128.84;;;15.88;82.46
54248;BME280;40161;39.768;2.722;2023-10-31T05:53:40;101135.13;;;15.68;83.66
54248;BME280;40161;39.768;2.722;2023-10-31T05:56:06;101142.25;;;15.76;82.85
54248;BME280;40161;39.768;2.722;2023-10-31T05:58:35;101145.47;;;15.96;81.54
54248;BME280;40161;39.768;2.722;2023-10-31T06:01:00;101139.09;;;15.81;82.18
54248;BME280;40161;39.768;2.722;2023-10-31T06:03:26;101149.00;;;15.89;81.93
54248;BME280;40161;39.768;2.722;2023-10-31T06:05:52;101147.00;;;15.86;80.96
54248;BME280;40161;39.768;2.722;2023-10-31T06:08:17;101144.66;;;15.95;80.70
54248;BME280;40161;39.768;2.722;2023-10-31T06:10:43;101149.00;;;15.96;80.81
54248;BME280;40161;39.768;2.722;2023-10-31T06:13:08;101151.00;;;15.99;80.58
54248;BME280;40161;39.768;2.722;2023-10-31T06:15:34;101142.69;;;15.88;80.64
54248;BME280;40161;39.768;2.722;2023-10-31T06:18:00;101154.97;;;15.98;81.20
54248;BME280;40161;39.768;2.722;2023-10-31T06:20:26;101152.97;;;15.92;81.81
54248;BME280;40161;39.768;2.722;2023-10-31T06:22:51;101158.50;;;15.92;81.68
54248;BME280;40161;39.768;2.722;2023-10-31T06:25:17;101161.28;;;15.95;80.69
54248;BME280;40161;39.768;2.722;2023-10-31T06:27:42;101161.28;;;15.95;82.66
54248;BME280;40161;39.768;2.722;2023-10-31T06:30:09;101157.69;;;15.80;82.92
54248;BME280;40161;39.768;2.722;2023-10-31T06:32:34;101160.03;;;15.78;82.30
54248;BME280;40161;39.768;2.722;2023-10-31T06:35:00;101163.59;;;15.75;81.66
54248;BME280;40161;39.768;2.722;2023-10-31T06:37:26;101165.59;;;15.78;81.40
54248;BME280;40161;39.768;2.722;2023-10-31T06:39:51;101163.59;;;15.79;82.44
54248;BME280;40161;39.768;2.722;2023-10-31T06:42:17;101160.00;;;15.68;82.52
54248;BME280;40161;39.768;2.722;2023-10-31T06:44:43;101172.16;;;15.45;85.02
54248;BME280;40161;39.768;2.722;2023-10-31T06:47:08;101171.81;;;15.57;84.93
54248;BME280;40161;39.768;2.722;2023-10-31T06:49:34;101143.69;;;15.41;84.98
54248;BME280;40161;39.768;2.722;2023-10-31T06:51:59;101165.91;;;15.59;84.68
54248;BME280;40161;39.768;2.722;2023-10-31T06:54:25;101173.84;;;15.68;84.33
54248;BME280;40161;39.768;2.722;2023-10-31T06:56:51;101180.13;;;15.64;83.69
54248;BME280;40161;39.768;2.722;2023-10-31T06:59:17;101179.03;;;15.76;83.49
54248;BME280;40161;39.768;2.722;2023-10-31T07:01:43;101196.78;;;15.75;82.83
54248;BME280;40161;39.768;2.722;2023-10-31T07:04:10;101190.47;;;15.75;83.16
54248;BME280;40161;39.768;2.722;2023-10-31T07:06:36;101201.50;;;15.68;82.77
54248;BME280;40161;39.768;2.722;2023-10-31T07:09:01;101214.44;;;15.46;85.84
54248;BME280;40161;39.768;2.722;2023-10-31T07:11:30;101203.44;;;15.56;85.38
54248;BME280;40161;39.768;2.722;2023-10-31T07:14:01;101212.22;;;15.69;83.39
54248;BME280;40161;39.768;2.722;2023-10-31T07:16:28;101209.88;;;15.85;82.74
54248;BME280;40161;39.768;2.722;2023-10-31T07:18:54;101211.09;;;15.88;82.66
54248;BME280;40161;39.768;2.722;2023-10-31T07:21:19;101211.81;;;15.71;85.92
54248;BME280;40161;39.768;2.722;2023-10-31T07:23:45;101208.25;;;15.70;85.72
54248;BME280;40161;39.768;2.722;2023-10-31T07:26:11;101229.25;;;15.85;85.95
54248;BME280;40161;39.768;2.722;2023-10-31T07:28:37;101224.13;;;15.87;86.05
54248;BME280;40161;39.768;2.722;2023-10-31T07:31:03;101239.97;;;15.94;85.92
54248;BME280;40161;39.768;2.722;2023-10-31T07:33:30;101222.53;;;15.83;85.97
54248;BME280;40161;39.768;2.722;2023-10-31T07:35:55;101228.88;;;15.87;86.11
54248;BME280;40161;39.768;2.722;2023-10-31T07:38:21;101244.31;;;15.95;86.34
54248;BME280;40161;39.768;2.722;2023-10-31T07:40:46;101246.25;;;15.84;87.33
54248;BME280;40161;39.768;2.722;2023-10-31T07:43:14;101254.19;;;15.93;87.60
54248;BME280;40161;39.768;2.722;2023-10-31T07:45:39;101252.63;;;15.99;87.58
54248;BME280;40161;39.768;2.722;2023-10-31T07:48:05;101264.91;;;15.98;87.98
54248;BME280;40161;39.768;2.722;2023-10-31T07:50:31;101271.63;;;16.00;88.78
54248;BME280;40161;39.768;2.722;2023-10-31T07:52:56;101225.31;;;15.83;87.89
54248;BME280;40161;39.768;2.722;2023-10-31T07:55:22;101266.91;;;16.08;88.07
54248;BME280;40161;39.768;2.722;2023-10-31T07:57:48;101243.56;;;16.09;86.89
54248;BME280;40161;39.768;2.722;2023-10-31T08:00:14;101275.25;;;16.26;87.02
54248;BME280;40161;39.768;2.722;2023-10-31T08:02:39;101275.25;;;16.26;88.26
54248;BME280;40161;39.768;2.722;2023-10-31T08:05:07;101276.84;;;16.27;88.78
54248;BME280;40161;39.768;2.722;2023-10-31T08:07:33;101281.22;;;16.28;89.53
54248;BME280;40161;39.768;2.722;2023-10-31T08:09:58;101281.63;;;16.37;88.92
54248;BME280;40161;39.768;2.722;2023-10-31T08:12:24;101278.47;;;16.42;88.81
54248;BME280;40161;39.768;2.722;2023-10-31T08:14:50;101284.41;;;16.48;90.63
54248;BME280;40161;39.768;2.722;2023-10-31T08:17:15;101239.69;;;16.28;90.12
54248;BME280;40161;39.768;2.722;2023-10-31T08:19:41;101277.31;;;16.57;88.49
54248;BME280;40161;39.768;2.722;2023-10-31T08:22:07;101279.28;;;16.64;88.14
54248;BME280;40161;39.768;2.722;2023-10-31T08:24:33;101279.69;;;16.73;87.81
54248;BME280;40161;39.768;2.722;2023-10-31T08:27:02;101282.50;;;16.84;87.38
54248;BME280;40161;39.768;2.722;2023-10-31T08:29:27;101288.84;;;16.95;86.86
54248;BME280;40161;39.768;2.722;2023-10-31T08:31:53;101276.97;;;17.05;86.58
54248;BME280;40161;39.768;2.722;2023-10-31T08:34:18;101275.78;;;17.14;86.38
54248;BME280;40161;39.768;2.722;2023-10-31T08:36:44;101288.81;;;17.20;85.31
54248;BME280;40161;39.768;2.722;2023-10-31T08:39:10;101280.09;;;17.29;85.42
54248;BME280;40161;39.768;2.722;2023-10-31T08:41:36;101290.41;;;17.36;85.26
54248;BME280;40161;39.768;2.722;2023-10-31T08:44:02;101301.88;;;17.45;84.56
54248;BME280;40161;39.768;2.722;2023-10-31T08:46:29;101285.63;;;17.40;84.59
54248;BME280;40161;39.768;2.722;2023-10-31T08:48:54;101303.44;;;17.60;84.41
54248;BME280;40161;39.768;2.722;2023-10-31T08:51:20;101306.19;;;17.64;83.47
54248;BME280;40161;39.768;2.722;2023-10-31T08:53:46;101309.72;;;17.75;82.61
54248;BME280;40161;39.768;2.722;2023-10-31T08:56:11;101306.19;;;17.78;80.68
54248;BME280;40161;39.768;2.722;2023-10-31T08:58:37;101310.53;;;17.86;80.79
54248;BME280;40161;39.768;2.722;2023-10-31T09:01:03;101316.06;;;17.93;77.81
54248;BME280;40161;39.768;2.722;2023-10-31T09:03:29;101313.63;;;18.02;79.14
54248;BME280;40161;39.768;2.722;2023-10-31T09:05:55;101306.44;;;18.12;78.23
54248;BME280;40161;39.768;2.722;2023-10-31T09:08:21;101302.06;;;18.15;76.72
54248;BME280;40161;39.768;2.722;2023-10-31T09:10:46;101307.59;;;18.22;76.44
54248;BME280;40161;39.768;2.722;2023-10-31T09:13:14;101283.03;;;18.13;74.54
54248;BME280;40161;39.768;2.722;2023-10-31T09:15:40;101313.50;;;18.31;72.94
54248;BME280;40161;39.768;2.722;2023-10-31T09:18:06;101314.66;;;18.34;71.61
54248;BME280;40161;39.768;2.722;2023-10-31T09:20:32;101328.16;;;18.39;70.01
54248;BME280;40161;39.768;2.722;2023-10-31T09:22:57;101317.03;;;18.42;69.71
54248;BME280;40161;39.768;2.722;2023-10-31T09:25:23;101326.53;;;18.48;67.69
54248;BME280;40161;39.768;2.722;2023-10-31T09:27:49;101331.28;;;18.52;64.52
54248;BME280;40161;39.768;2.722;2023-10-31T09:30:14;101325.28;;;18.57;63.32
54248;BME280;40161;39.768;2.722;2023-10-31T09:32:40;101333.97;;;18.62;62.26
54248;BME280;40161;39.768;2.722;2023-10-31T09:35:06;101321.66;;;18.63;61.53
54248;BME280;40161;39.768;2.722;2023-10-31T09:37:33;101329.59;;;18.72;61.36
54248;BME280;40161;39.768;2.722;2023-10-31T09:39:59;101320.03;;;18.73;59.92
54248;BME280;40161;39.768;2.722;2023-10-31T09:42:24;101331.09;;;18.84;59.80
54248;BME280;40161;39.768;2.722;2023-10-31T09:44:50;101312.00;;;18.82;60.44
54248;BME280;40161;39.768;2.722;2023-10-31T09:47:16;101302.44;;;18.90;60.81
54248;BME280;40161;39.768;2.722;2023-10-31T09:49:42;101324.16;;;19.03;58.54
54248;BME280;40161;39.768;2.722;2023-10-31T09:52:09;101326.56;;;19.04;58.02
54248;BME280;40161;39.768;2.722;2023-10-31T09:54:36;101328.53;;;19.07;58.65
54248;BME280;40161;39.768;2.722;2023-10-31T09:57:03;101325.31;;;19.09;60.88
54248;BME280;40161;39.768;2.722;2023-10-31T09:59:30;101336.38;;;19.16;61.59
54248;BME280;40161;39.768;2.722;2023-10-31T10:01:55;101302.72;;;19.03;61.84
54248;BME280;40161;39.768;2.722;2023-10-31T10:04:21;101323.63;;;19.22;62.46
54248;BME280;40161;39.768;2.722;2023-10-31T10:07:03;101322.00;;;19.25;62.33
54248;BME280;40161;39.768;2.722;2023-10-31T10:09:30;101332.66;;;19.33;62.80
54248;BME280;40161;39.768;2.722;2023-10-31T10:11:59;101329.50;;;19.31;62.59
54248;BME280;40161;39.768;2.722;2023-10-31T10:14:26;101343.75;;;19.37;60.74
54248;BME280;40161;39.768;2.722;2023-10-31T10:16:54;101335.03;;;19.35;56.84
54248;BME280;40161;39.768;2.722;2023-10-31T10:19:22;101342.94;;;19.40;56.82
54248;BME280;40161;39.768;2.722;2023-10-31T10:21:49;101334.94;;;19.45;58.57
54248;BME280;40161;39.768;2.722;2023-10-31T10:24:16;101339.25;;;19.50;58.10
54248;BME280;40161;39.768;2.722;2023-10-31T10:26:42;101334.06;;;19.52;56.72
54248;BME280;40161;39.768;2.722;2023-10-31T10:29:08;101349.50;;;19.60;55.91
54248;BME280;40161;39.768;2.722;2023-10-31T10:31:34;101348.69;;;19.63;55.79
54248;BME280;40161;39.768;2.722;2023-10-31T10:34:00;101349.84;;;19.70;55.45
54248;BME280;40161;39.768;2.722;2023-10-31T10:36:27;101343.44;;;19.73;57.00
54248;BME280;40161;39.768;2.722;2023-10-31T10:38:57;101324.44;;;19.64;55.36
54248;BME280;40161;39.768;2.722;2023-10-31T10:41:27;101342.97;;;19.78;55.24
54248;BME280;40161;39.768;2.722;2023-10-31T10:44:06;101342.06;;;19.88;54.01
54248;BME280;40161;39.768;2.722;2023-10-31T10:46:36;101337.19;;;19.96;54.77
54248;BME280;40161;39.768;2.722;2023-10-31T10:49:06;101339.13;;;20.02;54.49
54248;BME280;40161;39.768;2.722;2023-10-31T10:51:52;101339.13;;;20.02;55.29
54248;BME280;40161;39.768;2.722;2023-10-31T10:54:26;101336.31;;;20.02;55.34
54248;BME280;40161;39.768;2.722;2023-10-31T10:57:03;101336.81;;;19.97;56.10
54248;BME280;40161;39.768;2.722;2023-10-31T10:59:48;101342.72;;;19.99;55.74
54248;BME280;40161;39.768;2.722;2023-10-31T11:02:19;101343.50;;;20.03;56.82
54248;BME280;40161;39.768;2.722;2023-10-31T11:04:45;101339.94;;;19.99;57.08
54248;BME280;40161;39.768;2.722;2023-10-31T11:07:12;101320.44;;;19.99;55.59
54248;BME280;40161;39.768;2.722;2023-10-31T11:09:39;101318.88;;;19.98;57.35
54248;BME280;40161;39.768;2.722;2023-10-31T11:12:07;101313.72;;;19.97;57.25
54248;BME280;40161;39.768;2.722;2023-10-31T11:14:33;101322.88;;;19.97;58.10
54248;BME280;40161;39.768;2.722;2023-10-31T11:17:18;101327.22;;;19.98;56.09
54248;BME280;40161;39.768;2.722;2023-10-31T11:19:49;101314.47;;;20.01;54.82
54248;BME280;40161;39.768;2.722;2023-10-31T11:22:17;101318.78;;;20.05;55.25
54248;BME280;40161;39.768;2.722;2023-10-31T11:24:43;101310.44;;;20.05;56.47
54248;BME280;40161;39.768;2.722;2023-10-31T11:27:09;101310.81;;;20.07;56.66
54248;BME280;40161;39.768;2.722;2023-10-31T11:29:36;101298.97;;;20.00;55.33
54248;BME280;40161;39.768;2.722;2023-10-31T11:32:02;101311.56;;;20.11;55.28
54248;BME280;40161;39.768;2.722;2023-10-31T11:34:30;101310.72;;;20.14;53.73
54248;BME280;40161;39.768;2.722;2023-10-31T11:37:22;101310.75;;;20.11;54.12
54248;BME280;40161;39.768;2.722;2023-10-31T11:42:38;101288.81;;;20.13;53.90
54248;BME280;40161;39.768;2.722;2023-10-31T11:45:08;101275.38;;;20.08;53.78
54248;BME280;40161;39.768;2.722;2023-10-31T11:47:47;101289.13;;;20.22;51.63
54248;BME280;40161;39.768;2.722;2023-10-31T11:50:13;101287.44;;;20.28;53.01
54248;BME280;40161;39.768;2.722;2023-10-31T11:52:39;101285.44;;;20.29;52.35
54248;BME280;40161;39.768;2.722;2023-10-31T11:55:09;101276.75;;;20.23;51.35
54248;BME280;40161;39.768;2.722;2023-10-31T11:57:35;101303.28;;;20.35;50.86
54248;BME280;40161;39.768;2.722;2023-10-31T12:00:02;101305.59;;;20.40;50.10
54248;BME280;40161;39.768;2.722;2023-10-31T12:02:29;101293.75;;;20.32;49.11
54248;BME280;40161;39.768;2.722;2023-10-31T12:05:11;101288.47;;;20.42;50.89
54248;BME280;40161;39.768;2.722;2023-10-31T12:07:56;101276.13;;;20.39;51.43
54248;BME280;40161;39.768;2.722;2023-10-31T12:10:24;101287.19;;;20.46;51.59
54248;BME280;40161;39.768;2.722;2023-10-31T12:12:50;101277.41;;;20.34;50.60
54248;BME280;40161;39.768;2.722;2023-10-31T12:15:16;101293.94;;;20.49;51.08
54248;BME280;40161;39.768;2.722;2023-10-31T12:17:42;101301.47;;;20.52;51.03
54248;BME280;40161;39.768;2.722;2023-10-31T12:20:08;101282.44;;;20.43;50.82
54248;BME280;40161;39.768;2.722;2023-10-31T12:22:35;101297.00;;;20.58;52.23
54248;BME280;40161;39.768;2.722;2023-10-31T12:27:49;101277.50;;;20.58;50.46
54248;BME280;40161;39.768;2.722;2023-10-31T12:30:19;101275.50;;;20.58;51.57
54248;BME280;40161;39.768;2.722;2023-10-31T12:32:52;101277.84;;;20.60;53.08
54248;BME280;40161;39.768;2.722;2023-10-31T12:35:20;101271.59;;;20.52;52.57
54248;BME280;40161;39.768;2.722;2023-10-31T12:37:48;101271.63;;;20.49;51.87
54248;BME280;40161;39.768;2.722;2023-10-31T12:40:17;101266.06;;;20.49;51.88
54248;BME280;40161;39.768;2.722;2023-10-31T12:42:44;101252.09;;;20.49;51.61
54248;BME280;40161;39.768;2.722;2023-10-31T12:45:11;101244.53;;;20.49;52.01
54248;BME280;40161;39.768;2.722;2023-10-31T12:47:38;101249.69;;;20.54;52.32
54248;BME280;40161;39.768;2.722;2023-10-31T12:50:14;101244.09;;;20.54;52.38
54248;BME280;40161;39.768;2.722;2023-10-31T12:52:50;101256.44;;;20.53;52.42